OIBS METAR and TAF | Updated Today

OIBS METAR

Sirri Island Airport

Observation time: 30 min. ago

OIBS 060900Z 21008KT 4000 HZ FEW030 SCT100 27/15 Q1017

Need help? Read our tutorial on how to read METARs or read the parsed version below.

Sirri Island Airport (OIBS) METAR

  • Weather conditions on Mon, 06 Dec 2021 09:00:00 +0000 (30 min. ago):
  • Present conditions: Haze
  • Clouds: A few at 914 meters; scattered at 3048 meters
  • Visibility: 4000 meters
  • Wind: 210 degrees at 8 knots
  • Temperature: 27 celsius
  • Dew point: 15 celsius
  • Pressure: 1017 millibars
  • Remarks: None


Useful to know...